首页
METAR-TAF:

METAR-TAF

机场 :

格拉茨, 奥地利

纬度: 47-00N, 经度: 015-26E, 海拔: 340米

当前天气观测

该预报发布于19分钟前的01:50 UTC
风速8节,风向西北,在西北转西北之间变化
温度 8°C
湿度 76%
气压 994 hPa
能见度10公里或以上
少量云层高于2400英尺
阴天层高于4600英尺
小阵雨

METAR: LOWG 260150Z AUTO 31008KT 270V340 9999 -SHRA FEW024 OVC046 08/04 Q0994

时间: 04:09 (02:09 UTC)

预报

该预报发布于2小时和54分钟前的23:15 UTC
预报有效从26日的 00点(UTC)到 26日的 24点(UTC)
风速8节,风向北转西北
能见度10公里或以上
少量云层高于2000英尺
多云层高于5000英尺
短暂存在
从 26日的 00点(UTC)到 26日的 04点(UTC)
风速15节,风向西北,有时为25节阵风
小阵雨

TAF: LOWG 252315Z 2600/2624 34008KT 9999 FEW020 BKN050 TX14/2613Z TN05/2624Z TEMPO 2600/2604 32015G25KT -SHRA

超过4000个机场的气象观测和天气预报(METAR&TAF报告)。

可查询的气象台以黄色和红色小点在地图上表示。

将鼠标移到小点上方,可查看气象台名称。

然后点击查看天气观测和预报。

如需切换地图:点击带黑十字的绿色按钮放大地图;点击带横线的绿色按钮缩小地图;或者点击绿色箭头查看邻近地区的地图。


METAR-TAF: